Main page
METAR-TAF:

METAR-TAF

Airports :

Hihifo Airport

Wallis, France

latitude: 13-14S, longitude: 176-10W, elevation: 23 m

METAR: missing

Time: 07:58 (19:58 UTC)

Forecast

The report was made 2 hours and 58 minutes ago, at 17:00 UTC
Forecast valid from 23 at 18 UTC to 24 at 18 UTC
Wind 2 kt from variable directions
Visibility 10 km or more
Scattered clouds at a height of 2000 ft
Scattered clouds at a height of 6000 ft
Temporary
from 23 at 18 UTC to 24 at 06 UTC
Visibility: 4000 m
Broken clouds at a height of 1400 ft
Few clouds at a height of 1800 ft, Towering cumulus.
rain showers

TAF: NLWW 231700Z 2318/2418 VRB02KT 9999 SCT020 SCT060 TEMPO 2318/2406 4000 SHRA BKN014 FEW018TCU

Weather observations and forecasts of more than 4000 airports (METAR and TAF reports).

The available stations are represented by yellow and red dots on the map.

Hover mouse over dot to see the name of the station.

Then click to see weather observations and forecasts.

To change the map : click on the green buttons with a black cross to zoom in, on the green button with a dash to zoom out, or on the green arrows for adjacent maps.


METAR-TAF: